Time;durP1;ratioP1;P1;durP2;ratioP2;P2;SDS_P1;SDS_P2;PMS_P1;PMS_P2;Temp;Humidity;BMP_temperature;BMP_pressure;BME280_temperature;BME280_humidity;BME280_pressure;Samples;Min_cycle;Max_cycle;Signal;HPM_P1;HPM_P2
2021/12/16 00:10:51;;;;;;;482.63;167.52;;;;;;;;;;5084105;28;20393;-63
2021/12/16 00:34:49;;;;;;;562.42;189.07;;;;;;;;;;5093144;28;20036;-63
2021/12/16 00:37:15;;;;;;;553.60;180.85;;;;;;;;;;5093105;28;20357;-62
2021/12/16 00:39:41;;;;;;;574.60;181.80;;;;;;;;;;5091773;28;20494;-63
2021/12/16 00:55:57;;;;;;;707.30;197.02;;;;;;;;;;5092755;28;20050;-63
2021/12/16 00:58:32;;;;;;;736.97;209.23;;;;;;;;;;5092954;28;20020;-63
2021/12/16 01:01:14;;;;;;;629.92;193.00;;;;;;;;;;5092977;28;20052;-63
2021/12/16 01:04:20;;;;;;;565.80;176.68;;;;;;;;;;5092993;28;20032;-63
2021/12/16 01:36:49;;;;;;;567.42;134.00;;;;;;;;;;5096302;28;20483;-63
2021/12/16 01:50:29;;;;;;;525.75;128.35;;;;;;;;;;5079597;28;20083;-63
2021/12/16 01:55:33;;;;;;;471.63;124.88;;;;;;;;;;5095948;28;20059;-63
2021/12/16 01:58:11;;;;;;;554.17;125.78;;;;;;;;;;5095977;28;20028;-62
2021/12/16 02:00:56;;;;;;;496.25;120.70;;;;;;;;;;5095900;28;20061;-63
2021/12/16 02:03:27;;;;;;;496.55;122.90;;;;;;;;;;5094473;28;20020;-63
2021/12/16 02:06:25;;;;;;;490.95;120.80;;;;;;;;;;5095872;28;20039;-63
2021/12/16 02:08:43;;;;;;;555.85;119.53;;;;;;;;;;5095180;28;20032;-63
2021/12/16 02:27:40;;;;;;;433.67;109.38;;;;;;;;;;5095441;28;20120;-63
2021/12/16 02:33:15;;;;;;;467.92;108.45;;;;;;;;;;5095035;28;20092;-63
2021/12/16 02:36:15;;;;;;;397.67;102.18;;;;;;;;;;5095256;28;20020;-63
2021/12/16 02:38:31;;;;;;;445.60;98.45;;;;;;;;;;5094346;28;20497;-63
2021/12/16 02:40:58;;;;;;;434.08;98.03;;;;;;;;;;5095102;28;20020;-64
2021/12/16 02:48:43;;;;;;;376.30;90.75;;;;;;;;;;5094958;28;20110;-63
2021/12/16 02:51:15;;;;;;;350.38;89.53;;;;;;;;;;5094484;28;20046;-63
2021/12/16 02:53:46;;;;;;;485.65;96.82;;;;;;;;;;5094623;28;20103;-63
2021/12/16 02:56:12;;;;;;;415.63;91.40;;;;;;;;;;5094826;28;20055;-63
2021/12/16 02:58:39;;;;;;;439.77;95.03;;;;;;;;;;5095029;28;20054;-63
2021/12/16 03:01:09;;;;;;;315.38;82.65;;;;;;;;;;5094656;28;20047;-63
2021/12/16 03:03:38;;;;;;;363.08;87.13;;;;;;;;;;5094624;28;20024;-63
2021/12/16 03:06:04;;;;;;;368.15;85.88;;;;;;;;;;5094623;28;20111;-63
2021/12/16 03:08:32;;;;;;;400.60;85.88;;;;;;;;;;5094315;28;20064;-63
2021/12/16 03:11:08;;;;;;;403.65;86.68;;;;;;;;;;5094517;28;20031;-63
2021/12/16 03:13:55;;;;;;;467.15;91.15;;;;;;;;;;5094542;28;20081;-63
2021/12/16 03:16:35;;;;;;;500.15;96.47;;;;;;;;;;5094512;28;20499;-63
2021/12/16 03:21:33;;;;;;;370.60;88.55;;;;;;;;;;5094224;28;20024;-63
2021/12/16 03:24:40;;;;;;;382.38;89.80;;;;;;;;;;5093046;28;20089;-63
2021/12/16 03:32:35;;;;;;;388.65;88.18;;;;;;;;;;5093318;28;20062;-63
2021/12/16 03:37:50;;;;;;;393.70;94.90;;;;;;;;;;5093803;28;20039;-63
2021/12/16 03:40:16;;;;;;;443.08;95.85;;;;;;;;;;5093931;28;20036;-63
2021/12/16 03:42:54;;;;;;;326.17;86.93;;;;;;;;;;5093834;28;20028;-62
2021/12/16 03:48:22;;;;;;;338.48;84.68;;;;;;;;;;5068454;28;20538;-64
2021/12/16 03:50:49;;;;;;;397.58;80.50;;;;;;;;;;5092226;28;20071;-62
2021/12/16 03:53:36;;;;;;;404.02;81.82;;;;;;;;;;5092211;28;20085;-63
2021/12/16 03:56:03;;;;;;;515.50;92.70;;;;;;;;;;5089215;28;20028;-67
2021/12/16 03:58:29;;;;;;;437.83;84.63;;;;;;;;;;5093452;28;20029;-67
2021/12/16 04:00:57;;;;;;;414.65;81.78;;;;;;;;;;5093179;28;20106;-68
2021/12/16 04:03:24;;;;;;;420.58;84.07;;;;;;;;;;5093279;28;20036;-69
2021/12/16 04:05:50;;;;;;;469.55;84.75;;;;;;;;;;5092146;28;20381;-69
2021/12/16 04:08:17;;;;;;;334.55;77.25;;;;;;;;;;5091820;28;20024;-69
2021/12/16 04:10:47;;;;;;;422.92;81.78;;;;;;;;;;5091753;28;20028;-67
2021/12/16 04:13:16;;;;;;;330.80;73.47;;;;;;;;;;5093470;28;20388;-68
2021/12/16 04:15:43;;;;;;;349.17;75.00;;;;;;;;;;5093282;28;20488;-67
2021/12/16 04:18:09;;;;;;;487.70;84.85;;;;;;;;;;5093205;28;20481;-67
2021/12/16 04:20:36;;;;;;;322.95;73.38;;;;;;;;;;5092916;28;20030;-69
2021/12/16 04:23:05;;;;;;;487.60;79.03;;;;;;;;;;5091737;28;20369;-68
2021/12/16 04:25:33;;;;;;;327.50;71.00;;;;;;;;;;5091609;28;20024;-69
2021/12/16 04:28:02;;;;;;;327.75;71.78;;;;;;;;;;5091612;28;20031;-67
2021/12/16 04:30:29;;;;;;;312.02;69.65;;;;;;;;;;5091329;28;20059;-67
2021/12/16 04:32:55;;;;;;;351.73;71.43;;;;;;;;;;5093102;28;20047;-69
2021/12/16 04:35:22;;;;;;;401.95;72.28;;;;;;;;;;5091729;28;20084;-68
2021/12/16 04:37:49;;;;;;;387.88;74.18;;;;;;;;;;5092866;28;20024;-66
2021/12/16 04:40:17;;;;;;;346.67;68.95;;;;;;;;;;5091617;28;20111;-67
2021/12/16 04:42:44;;;;;;;358.55;70.35;;;;;;;;;;5091623;28;20036;-68
2021/12/16 04:45:15;;;;;;;339.52;72.50;;;;;;;;;;5095381;28;20039;-70
2021/12/16 04:47:41;;;;;;;328.15;72.35;;;;;;;;;;5097235;28;20055;-69
2021/12/16 04:50:08;;;;;;;410.05;76.00;;;;;;;;;;5096926;28;20071;-70
2021/12/16 04:52:35;;;;;;;299.42;73.43;;;;;;;;;;5097080;28;20028;-68
2021/12/16 04:55:01;;;;;;;391.27;74.10;;;;;;;;;;5097069;28;20024;-69
2021/12/16 04:57:27;;;;;;;325.45;74.93;;;;;;;;;;5096999;28;20024;-70
2021/12/16 04:59:54;;;;;;;344.58;74.13;;;;;;;;;;5095570;28;20119;-68
2021/12/16 05:02:22;;;;;;;310.58;72.72;;;;;;;;;;5096697;28;20032;-70
2021/12/16 05:04:48;;;;;;;281.88;69.70;;;;;;;;;;5095508;28;20039;-70
2021/12/16 05:07:15;;;;;;;248.10;68.82;;;;;;;;;;5097004;28;20028;-70
2021/12/16 05:12:09;;;;;;;262.23;66.95;;;;;;;;;;5096624;28;20050;-69
2021/12/16 05:14:35;;;;;;;275.35;68.68;;;;;;;;;;5096684;28;20028;-68
2021/12/16 05:17:06;;;;;;;284.05;70.45;;;;;;;;;;5096674;28;20024;-69
2021/12/16 05:19:32;;;;;;;244.75;65.80;;;;;;;;;;5095280;28;20035;-70
2021/12/16 05:24:14;;;;;;;267.50;70.40;;;;;;;;;;5094844;28;20464;-69
2021/12/16 05:24:45;;;;;;;306.52;69.57;;;;;;;;;;5096169;28;20040;-69
2021/12/16 05:27:11;;;;;;;302.92;69.10;;;;;;;;;;5094969;28;20024;-70
2021/12/16 05:29:38;;;;;;;379.50;71.75;;;;;;;;;;5096383;28;20445;-70
2021/12/16 05:32:04;;;;;;;272.02;64.93;;;;;;;;;;5096466;28;20388;-69
2021/12/16 05:34:31;;;;;;;239.40;63.90;;;;;;;;;;5094963;28;20031;-68
2021/12/16 05:36:57;;;;;;;266.17;65.70;;;;;;;;;;5094887;28;20115;-68
2021/12/16 05:39:24;;;;;;;234.13;62.75;;;;;;;;;;5094828;28;20020;-67
2021/12/16 05:41:51;;;;;;;230.82;60.15;;;;;;;;;;5094528;28;20035;-68
2021/12/16 05:44:18;;;;;;;254.95;61.15;;;;;;;;;;5096085;28;20032;-68
2021/12/16 05:46:45;;;;;;;247.32;64.20;;;;;;;;;;5095834;28;20077;-67
2021/12/16 05:49:13;;;;;;;217.63;63.45;;;;;;;;;;5095839;28;20025;-67
2021/12/16 05:51:42;;;;;;;231.38;64.70;;;;;;;;;;5094676;28;20031;-67
2021/12/16 05:54:08;;;;;;;233.88;64.65;;;;;;;;;;5095362;28;20086;-67
2021/12/16 05:56:35;;;;;;;220.68;63.30;;;;;;;;;;5095857;28;20111;-68
2021/12/16 05:59:01;;;;;;;214.75;63.28;;;;;;;;;;5095883;28;20020;-68
2021/12/16 06:01:29;;;;;;;204.13;64.13;;;;;;;;;;5095421;28;20457;-67
2021/12/16 06:03:56;;;;;;;238.95;69.10;;;;;;;;;;5094185;28;20032;-69
2021/12/16 06:06:23;;;;;;;212.40;65.50;;;;;;;;;;5094256;28;20488;-68
2021/12/16 06:08:50;;;;;;;246.30;69.90;;;;;;;;;;5095613;28;20085;-67
2021/12/16 06:28:07;;;;;;;244.13;67.30;;;;;;;;;;5094838;28;20035;-67
2021/12/16 06:30:35;;;;;;;229.60;67.70;;;;;;;;;;5095169;28;20072;-67
2021/12/16 06:33:03;;;;;;;222.02;67.63;;;;;;;;;;5095230;28;20028;-67
2021/12/16 06:35:30;;;;;;;224.55;70.07;;;;;;;;;;5095514;28;20128;-66
2021/12/16 06:37:56;;;;;;;246.10;71.20;;;;;;;;;;5095149;28;20016;-69
2021/12/16 06:40:23;;;;;;;230.20;71.75;;;;;;;;;;5094251;28;20024;-69
2021/12/16 06:42:50;;;;;;;224.63;72.10;;;;;;;;;;5094264;28;20111;-69
2021/12/16 06:45:23;;;;;;;214.73;72.82;;;;;;;;;;5093665;28;20150;-68
2021/12/16 06:47:55;;;;;;;215.93;71.90;;;;;;;;;;5094869;28;20451;-67
2021/12/16 06:50:32;;;;;;;194.95;66.55;;;;;;;;;;5094816;28;20040;-67
2021/12/16 06:53:01;;;;;;;219.13;77.50;;;;;;;;;;5093453;28;20031;-66
2021/12/16 06:58:22;;;;;;;242.88;79.07;;;;;;;;;;5094755;28;20111;-66
2021/12/16 07:00:51;;;;;;;303.92;101.97;;;;;;;;;;5094737;28;20028;-65
2021/12/16 07:03:20;;;;;;;264.58;85.78;;;;;;;;;;5094531;28;20028;-66
2021/12/16 07:05:49;;;;;;;242.70;75.05;;;;;;;;;;5093921;28;20021;-67
2021/12/16 07:08:17;;;;;;;226.98;76.85;;;;;;;;;;5094420;28;20031;-66
2021/12/16 07:10:45;;;;;;;254.68;78.22;;;;;;;;;;5090767;28;20052;-65
2021/12/16 07:13:18;;;;;;;232.77;77.20;;;;;;;;;;5092808;28;20035;-68
2021/12/16 07:15:45;;;;;;;217.30;70.93;;;;;;;;;;5094317;28;20080;-67
2021/12/16 07:18:11;;;;;;;225.23;76.05;;;;;;;;;;5093789;28;20460;-65
2021/12/16 07:20:37;;;;;;;192.55;68.72;;;;;;;;;;5092862;28;20128;-66
2021/12/16 07:23:05;;;;;;;215.15;72.88;;;;;;;;;;5092746;28;20055;-67
2021/12/16 07:25:31;;;;;;;196.15;70.10;;;;;;;;;;5094069;28;20028;-67
2021/12/16 07:27:57;;;;;;;211.77;73.03;;;;;;;;;;5094080;28;20481;-66
2021/12/16 07:30:24;;;;;;;200.13;68.57;;;;;;;;;;5094016;28;20069;-67
2021/12/16 07:32:50;;;;;;;201.18;71.05;;;;;;;;;;5094121;28;20035;-67
2021/12/16 07:35:18;;;;;;;208.15;72.43;;;;;;;;;;5094067;28;20021;-67
2021/12/16 07:37:45;;;;;;;211.45;75.20;;;;;;;;;;5092645;28;20035;-68
2021/12/16 07:40:12;;;;;;;216.98;74.78;;;;;;;;;;5093954;28;20031;-67
2021/12/16 07:42:48;;;;;;;219.25;76.43;;;;;;;;;;5093877;28;20028;-67
2021/12/16 07:45:16;;;;;;;198.00;73.47;;;;;;;;;;5093912;28;20484;-68
2021/12/16 07:47:43;;;;;;;208.13;75.53;;;;;;;;;;5092506;28;20107;-67
2021/12/16 07:50:10;;;;;;;203.52;79.55;;;;;;;;;;5093288;28;20044;-66
2021/12/16 07:52:37;;;;;;;199.77;76.65;;;;;;;;;;5093758;28;20505;-66
2021/12/16 07:55:04;;;;;;;207.55;76.97;;;;;;;;;;5093661;28;20078;-68
2021/12/16 07:57:30;;;;;;;208.38;79.15;;;;;;;;;;5093888;28;20024;-71
2021/12/16 07:59:57;;;;;;;200.82;81.38;;;;;;;;;;5092252;28;20039;-70
2021/12/16 08:02:23;;;;;;;196.65;84.55;;;;;;;;;;5093455;28;20028;-67
2021/12/16 08:04:51;;;;;;;222.73;86.90;;;;;;;;;;5093449;28;20111;-65
2021/12/16 08:07:18;;;;;;;195.32;83.20;;;;;;;;;;5093455;28;20464;-67
2021/12/16 08:09:45;;;;;;;196.23;83.22;;;;;;;;;;5092303;28;20369;-64
2021/12/16 08:12:13;;;;;;;190.30;80.75;;;;;;;;;;5091997;28;20036;-65
2021/12/16 08:14:40;;;;;;;184.10;78.03;;;;;;;;;;5093400;28;20483;-64
2021/12/16 08:17:06;;;;;;;183.65;79.68;;;;;;;;;;5092717;28;20032;-65
2021/12/16 08:19:32;;;;;;;182.38;83.00;;;;;;;;;;5093382;28;20024;-65
2021/12/16 08:21:58;;;;;;;185.10;82.40;;;;;;;;;;5093244;28;20082;-66
2021/12/16 08:24:25;;;;;;;188.93;84.28;;;;;;;;;;5093245;28;20050;-65
2021/12/16 08:26:53;;;;;;;188.98;85.95;;;;;;;;;;5093191;28;20051;-66
2021/12/16 08:29:20;;;;;;;187.98;85.45;;;;;;;;;;5093269;28;20020;-69
2021/12/16 08:31:47;;;;;;;193.10;87.68;;;;;;;;;;5091810;28;20093;-68
2021/12/16 08:34:13;;;;;;;181.75;83.28;;;;;;;;;;5091738;28;20435;-67
2021/12/16 08:36:40;;;;;;;180.95;83.30;;;;;;;;;;5092967;28;20039;-68
2021/12/16 08:39:08;;;;;;;169.10;80.75;;;;;;;;;;5091722;28;20177;-67
2021/12/16 08:41:39;;;;;;;170.98;83.40;;;;;;;;;;5093007;28;20136;-67
2021/12/16 08:44:05;;;;;;;176.73;83.25;;;;;;;;;;5091778;28;20040;-67
2021/12/16 08:46:33;;;;;;;179.98;85.13;;;;;;;;;;5092940;28;20020;-67
2021/12/16 08:49:00;;;;;;;172.57;83.82;;;;;;;;;;5091611;28;20024;-69
2021/12/16 08:51:28;;;;;;;166.60;81.25;;;;;;;;;;5092585;28;20048;-70
2021/12/16 08:53:54;;;;;;;176.52;83.65;;;;;;;;;;5092998;28;20480;-66
2021/12/16 08:56:21;;;;;;;164.32;81.78;;;;;;;;;;5092930;28;20047;-66
2021/12/16 08:58:47;;;;;;;170.45;82.55;;;;;;;;;;5092922;28;20027;-73
2021/12/16 09:01:16;;;;;;;171.07;87.60;;;;;;;;;;5090782;28;20020;-72
2021/12/16 09:03:42;;;;;;;154.65;80.43;;;;;;;;;;5072172;28;20453;-74
2021/12/16 09:06:09;;;;;;;144.55;74.10;;;;;;;;;;5082344;28;20028;-78
2021/12/16 09:08:36;;;;;;;142.23;69.60;;;;;;;;;;5092713;28;20077;-72
2021/12/16 09:11:05;;;;;;;154.05;75.57;;;;;;;;;;5092893;28;20103;-73
2021/12/16 09:13:31;;;;;;;147.90;75.95;;;;;;;;;;5092588;28;20028;-76
2021/12/16 09:16:02;;;;;;;159.90;77.50;;;;;;;;;;5091298;28;20111;-74
2021/12/16 09:18:30;;;;;;;136.38;71.05;;;;;;;;;;5092416;28;20388;-68
2021/12/16 09:20:57;;;;;;;139.57;67.75;;;;;;;;;;5091227;28;20131;-74
2021/12/16 09:23:23;;;;;;;155.55;75.07;;;;;;;;;;5091147;28;20045;-70
2021/12/16 09:25:50;;;;;;;156.27;82.60;;;;;;;;;;5092283;28;20556;-69
2021/12/16 09:28:17;;;;;;;209.90;109.22;;;;;;;;;;5092486;28;20036;-71
2021/12/16 09:30:43;;;;;;;153.38;81.93;;;;;;;;;;5095323;28;20068;-74
2021/12/16 09:33:16;;;;;;;129.90;68.45;;;;;;;;;;5094172;28;20024;-74
2021/12/16 09:35:44;;;;;;;138.98;69.57;;;;;;;;;;5094889;28;20028;-71
2021/12/16 09:38:11;;;;;;;139.00;69.97;;;;;;;;;;5094946;28;20372;-71
2021/12/16 09:40:46;;;;;;;133.35;68.25;;;;;;;;;;5096194;28;20554;-68
2021/12/16 09:43:13;;;;;;;130.38;65.45;;;;;;;;;;5094505;28;20032;-74
2021/12/16 09:45:39;;;;;;;126.20;64.90;;;;;;;;;;5096001;28;20031;-73
2021/12/16 09:48:05;;;;;;;128.60;63.13;;;;;;;;;;5095996;28;20059;-72
2021/12/16 09:50:32;;;;;;;110.50;58.17;;;;;;;;;;5094459;28;20043;-70
2021/12/16 09:53:01;;;;;;;117.90;55.88;;;;;;;;;;5095915;28;20153;-69
2021/12/16 09:55:28;;;;;;;110.00;57.58;;;;;;;;;;5095470;28;20388;-70
2021/12/16 09:57:54;;;;;;;119.80;57.75;;;;;;;;;;5092352;28;20033;-71
2021/12/16 10:00:23;;;;;;;115.78;57.72;;;;;;;;;;5084202;28;20098;-70
2021/12/16 10:02:49;;;;;;;117.43;58.85;;;;;;;;;;5075342;28;20029;-72
2021/12/16 10:05:16;;;;;;;111.97;57.45;;;;;;;;;;5075166;28;20095;-70
2021/12/16 10:07:42;;;;;;;115.60;59.45;;;;;;;;;;5075203;28;20115;-67
2021/12/16 10:10:13;;;;;;;119.30;61.53;;;;;;;;;;5075353;28;20036;-68
2021/12/16 10:12:43;;;;;;;109.75;59.13;;;;;;;;;;5075384;28;20031;-70
2021/12/16 10:17:55;;;;;;;117.35;58.78;;;;;;;;;;5075219;28;20082;-69
2021/12/16 10:20:24;;;;;;;123.65;60.15;;;;;;;;;;5074764;28;20374;-70
2021/12/16 10:22:51;;;;;;;140.48;66.57;;;;;;;;;;5075004;28;20029;-70
2021/12/16 10:25:25;;;;;;;113.70;60.13;;;;;;;;;;5074742;28;20424;-71
2021/12/16 10:27:53;;;;;;;121.38;65.43;;;;;;;;;;5087266;28;20024;-74
2021/12/16 10:30:19;;;;;;;114.82;61.63;;;;;;;;;;5090950;28;20103;-68
2021/12/16 10:32:48;;;;;;;107.72;58.88;;;;;;;;;;5095212;28;20032;-69
2021/12/16 10:35:16;;;;;;;106.07;57.55;;;;;;;;;;5093364;28;20464;-69
2021/12/16 10:37:44;;;;;;;98.53;54.67;;;;;;;;;;5093469;28;20551;-68
2021/12/16 10:40:25;;;;;;;107.85;57.95;;;;;;;;;;5093777;28;20077;-68
2021/12/16 10:42:51;;;;;;;105.90;56.03;;;;;;;;;;5094915;28;20107;-69
2021/12/16 10:45:36;;;;;;;106.28;57.20;;;;;;;;;;5095013;28;20395;-70
2021/12/16 10:48:14;;;;;;;104.82;58.42;;;;;;;;;;5094925;28;20024;-70
2021/12/16 10:50:59;;;;;;;113.80;60.50;;;;;;;;;;5093322;28;20139;-71
2021/12/16 10:53:44;;;;;;;114.50;60.75;;;;;;;;;;5094687;28;20031;-71
2021/12/16 10:56:10;;;;;;;107.38;59.00;;;;;;;;;;5091386;28;20081;-70
2021/12/16 10:58:54;;;;;;;115.45;59.55;;;;;;;;;;5092041;28;20062;-70
2021/12/16 11:01:38;;;;;;;103.60;56.60;;;;;;;;;;5093130;28;20077;-66
2021/12/16 11:04:09;;;;;;;107.78;59.05;;;;;;;;;;5093730;28;20506;-69
2021/12/16 11:06:37;;;;;;;102.60;59.40;;;;;;;;;;5094017;28;20028;-69
2021/12/16 11:09:22;;;;;;;110.13;59.20;;;;;;;;;;5093906;28;20032;-69
2021/12/16 11:11:49;;;;;;;111.15;58.00;;;;;;;;;;5092938;28;20373;-69
2021/12/16 11:14:22;;;;;;;118.47;61.85;;;;;;;;;;5094294;28;20028;-71
2021/12/16 11:16:56;;;;;;;105.68;58.10;;;;;;;;;;5093073;28;20120;-73
2021/12/16 11:19:41;;;;;;;109.68;60.55;;;;;;;;;;5094635;28;20098;-69
2021/12/16 11:22:08;;;;;;;121.57;68.65;;;;;;;;;;5093835;28;20388;-70
2021/12/16 11:24:34;;;;;;;125.70;68.18;;;;;;;;;;5094047;28;20107;-68
2021/12/16 11:27:18;;;;;;;105.00;61.85;;;;;;;;;;5094352;28;20048;-71
2021/12/16 11:29:44;;;;;;;115.05;63.88;;;;;;;;;;5094183;28;20016;-70
2021/12/16 11:32:31;;;;;;;121.75;69.07;;;;;;;;;;5094124;28;20122;-70
2021/12/16 11:34:57;;;;;;;109.97;62.35;;;;;;;;;;5092625;28;20429;-71
2021/12/16 11:37:23;;;;;;;119.95;66.85;;;;;;;;;;5092676;28;20024;-69
2021/12/16 11:39:49;;;;;;;121.30;67.10;;;;;;;;;;5093734;28;20149;-68
2021/12/16 11:42:16;;;;;;;123.05;68.05;;;;;;;;;;5092313;28;20087;-71
2021/12/16 11:44:43;;;;;;;128.05;73.00;;;;;;;;;;5091426;28;20066;-70
2021/12/16 11:47:19;;;;;;;128.55;71.28;;;;;;;;;;5091929;28;20020;-69
2021/12/16 11:49:48;;;;;;;126.18;72.22;;;;;;;;;;5093016;28;20055;-69
2021/12/16 11:52:20;;;;;;;149.05;78.22;;;;;;;;;;5088565;28;20036;-70
2021/12/16 11:54:46;;;;;;;;;;;;;;;;;;5092702;28;20388;-68
2021/12/16 11:57:23;;;;;;;153.48;82.13;;;;;;;;;;5093561;28;19908;-66
2021/12/16 11:59:58;;;;;;;157.50;85.57;;;;;;;;;;5093530;28;20016;-69
2021/12/16 12:02:33;;;;;;;156.23;84.10;;;;;;;;;;5093302;28;20383;-68
2021/12/16 12:05:19;;;;;;;154.73;84.18;;;;;;;;;;5092850;28;20103;-70
2021/12/16 12:07:47;;;;;;;141.43;80.45;;;;;;;;;;5093092;28;20016;-71
2021/12/16 12:10:15;;;;;;;150.10;83.57;;;;;;;;;;5091925;28;20494;-71
2021/12/16 12:12:41;;;;;;;147.02;82.10;;;;;;;;;;5091031;28;20026;-74
2021/12/16 12:15:09;;;;;;;148.43;80.88;;;;;;;;;;5091361;28;20111;-72
2021/12/16 12:17:50;;;;;;;146.43;81.15;;;;;;;;;;5093426;28;20181;-68
2021/12/16 12:20:18;;;;;;;148.05;81.30;;;;;;;;;;5091703;28;20489;-69
2021/12/16 12:22:44;;;;;;;142.80;79.63;;;;;;;;;;5091639;28;20176;-70
2021/12/16 12:25:10;;;;;;;141.55;79.22;;;;;;;;;;5091662;28;20024;-67
2021/12/16 12:27:36;;;;;;;144.50;80.05;;;;;;;;;;5093084;28;20111;-69
2021/12/16 12:30:07;;;;;;;132.68;74.30;;;;;;;;;;5093147;28;20051;-69
2021/12/16 12:32:35;;;;;;;139.82;77.18;;;;;;;;;;5091615;28;20028;-67
2021/12/16 12:35:01;;;;;;;131.60;73.43;;;;;;;;;;5092655;28;20088;-68
2021/12/16 12:37:29;;;;;;;136.20;73.60;;;;;;;;;;5093034;28;20112;-71
2021/12/16 12:40:21;;;;;;;138.10;76.00;;;;;;;;;;5093062;28;20028;-70
2021/12/16 12:42:48;;;;;;;136.63;73.25;;;;;;;;;;5086790;28;20032;-69
2021/12/16 12:45:16;;;;;;;134.93;73.32;;;;;;;;;;5091675;28;20028;-69
2021/12/16 12:47:44;;;;;;;129.80;74.28;;;;;;;;;;5091659;28;20422;-69
2021/12/16 12:50:12;;;;;;;131.23;73.35;;;;;;;;;;5091339;28;20075;-69
2021/12/16 12:52:39;;;;;;;137.52;74.13;;;;;;;;;;5092904;28;20028;-69
2021/12/16 12:55:11;;;;;;;133.93;72.88;;;;;;;;;;5092896;28;20032;-71
2021/12/16 12:57:38;;;;;;;138.50;74.80;;;;;;;;;;5092844;28;20028;-68
2021/12/16 13:00:09;;;;;;;137.70;76.93;;;;;;;;;;5093102;28;20028;-69
2021/12/16 13:02:37;;;;;;;133.18;73.70;;;;;;;;;;5091475;28;20027;-68
2021/12/16 13:05:09;;;;;;;127.18;73.70;;;;;;;;;;5094530;28;20476;-67
2021/12/16 13:07:40;;;;;;;134.35;73.68;;;;;;;;;;5095439;28;20020;-68
2021/12/16 13:10:17;;;;;;;133.50;75.15;;;;;;;;;;5096728;28;20036;-68
2021/12/16 13:13:02;;;;;;;134.20;71.50;;;;;;;;;;5095407;28;20538;-67
2021/12/16 13:23:45;;;;;;;140.43;71.50;;;;;;;;;;5096146;28;20035;-67
2021/12/16 13:28:57;;;;;;;138.55;72.82;;;;;;;;;;5096400;28;20031;-68
2021/12/16 13:31:25;;;;;;;132.40;71.43;;;;;;;;;;5096431;28;20028;-69
2021/12/16 13:33:57;;;;;;;137.82;74.93;;;;;;;;;;5095057;28;20035;-68
2021/12/16 13:36:45;;;;;;;143.07;76.65;;;;;;;;;;5095052;28;20020;-67
2021/12/16 13:39:13;;;;;;;142.45;74.13;;;;;;;;;;5096627;28;20028;-67
2021/12/16 13:41:53;;;;;;;140.68;73.80;;;;;;;;;;5096175;28;20031;-68
2021/12/16 13:44:19;;;;;;;153.93;77.10;;;;;;;;;;5096200;28;20051;-68
2021/12/16 13:47:06;;;;;;;147.73;74.75;;;;;;;;;;5096134;28;20023;-67
2021/12/16 14:04:04;;;;;;;144.27;76.60;;;;;;;;;;5095704;28;20031;-69
2021/12/16 14:06:53;;;;;;;131.65;71.25;;;;;;;;;;5096044;28;20434;-69
2021/12/16 14:09:23;;;;;;;137.57;72.75;;;;;;;;;;5095707;28;20058;-69
2021/12/16 14:14:55;;;;;;;144.27;74.22;;;;;;;;;;5095622;28;20028;-69
2021/12/16 14:17:40;;;;;;;132.00;72.13;;;;;;;;;;5094736;28;20055;-68
2021/12/16 14:23:10;;;;;;;144.40;76.40;;;;;;;;;;5095325;28;20630;-68
2021/12/16 14:26:09;;;;;;;138.95;74.10;;;;;;;;;;5095423;28;20111;-69
2021/12/16 14:42:15;;;;;;;145.77;79.00;;;;;;;;;;5095101;28;20089;-71
2021/12/16 14:47:55;;;;;;;146.60;79.85;;;;;;;;;;5095015;28;20107;-68
2021/12/16 14:50:23;;;;;;;152.13;78.47;;;;;;;;;;5094654;28;20106;-72
2021/12/16 14:52:49;;;;;;;156.75;81.82;;;;;;;;;;5094885;28;20036;-70
2021/12/16 14:55:18;;;;;;;158.20;84.88;;;;;;;;;;5094826;28;20032;-68
2021/12/16 14:57:46;;;;;;;165.00;88.53;;;;;;;;;;5094796;28;20062;-69
2021/12/16 15:00:15;;;;;;;156.52;83.00;;;;;;;;;;5092486;28;20103;-67
2021/12/16 15:02:43;;;;;;;153.32;81.25;;;;;;;;;;5093980;28;20027;-69
2021/12/16 15:05:29;;;;;;;138.18;72.88;;;;;;;;;;5093060;28;20120;-70
2021/12/16 15:08:03;;;;;;;152.68;79.38;;;;;;;;;;5094501;28;20027;-71
2021/12/16 15:10:29;;;;;;;146.82;77.10;;;;;;;;;;5094414;28;20036;-70
2021/12/16 15:13:00;;;;;;;153.02;82.05;;;;;;;;;;5093147;28;20464;-71
2021/12/16 15:15:42;;;;;;;162.68;85.07;;;;;;;;;;5092285;28;20024;-68
2021/12/16 15:40:07;;;;;;;187.00;95.03;;;;;;;;;;5094035;28;20039;-71
2021/12/16 15:45:25;;;;;;;165.25;85.82;;;;;;;;;;5094009;28;20043;-67
2021/12/16 15:47:57;;;;;;;177.48;87.53;;;;;;;;;;5093637;28;20024;-68
2021/12/16 15:50:26;;;;;;;180.75;91.85;;;;;;;;;;5092284;28;20052;-69
2021/12/16 15:52:54;;;;;;;203.45;100.95;;;;;;;;;;5093749;28;20111;-70
2021/12/16 15:55:32;;;;;;;225.18;112.03;;;;;;;;;;5093735;28;20028;-69
2021/12/16 15:58:00;;;;;;;249.88;117.30;;;;;;;;;;5093680;28;20035;-70
2021/12/16 16:00:26;;;;;;;253.60;124.53;;;;;;;;;;5093603;28;20020;-69
2021/12/16 16:02:55;;;;;;;219.40;108.43;;;;;;;;;;5093594;28;20024;-68
2021/12/16 16:05:22;;;;;;;176.77;94.15;;;;;;;;;;5093768;28;20039;-67
2021/12/16 16:07:48;;;;;;;163.40;85.60;;;;;;;;;;5092214;28;20077;-69
2021/12/16 16:10:15;;;;;;;156.48;84.25;;;;;;;;;;5094013;28;20055;-69
2021/12/16 16:12:42;;;;;;;152.73;82.25;;;;;;;;;;5093558;28;20028;-72
2021/12/16 16:15:16;;;;;;;162.57;86.85;;;;;;;;;;5093454;28;20020;-68
2021/12/16 16:17:53;;;;;;;212.35;119.25;;;;;;;;;;5093519;28;20051;-69
2021/12/16 16:20:20;;;;;;;207.10;109.13;;;;;;;;;;5092071;28;20031;-69
2021/12/16 16:22:47;;;;;;;185.95;98.40;;;;;;;;;;5093491;28;20127;-68
2021/12/16 16:25:13;;;;;;;181.35;94.97;;;;;;;;;;5093261;28;20111;-69
2021/12/16 16:27:39;;;;;;;163.18;88.50;;;;;;;;;;5093000;28;20043;-67
2021/12/16 16:30:06;;;;;;;164.80;87.65;;;;;;;;;;5093527;28;20082;-70
2021/12/16 16:32:51;;;;;;;166.18;90.70;;;;;;;;;;5093275;28;20468;-69
2021/12/16 16:35:18;;;;;;;156.40;87.88;;;;;;;;;;5093160;28;20024;-69
2021/12/16 16:37:44;;;;;;;156.35;89.25;;;;;;;;;;5091845;28;20031;-67
2021/12/16 16:40:11;;;;;;;159.82;90.63;;;;;;;;;;5091669;28;20119;-68
2021/12/16 16:42:39;;;;;;;157.52;89.68;;;;;;;;;;5093018;28;20177;-68
2021/12/16 16:45:07;;;;;;;166.98;92.15;;;;;;;;;;5091780;28;20032;-68
2021/12/16 16:47:40;;;;;;;164.75;93.57;;;;;;;;;;5093061;28;20077;-71
2021/12/16 16:50:08;;;;;;;173.32;97.18;;;;;;;;;;5092953;28;20101;-70
2021/12/16 16:52:36;;;;;;;166.70;89.32;;;;;;;;;;5093003;28;20476;-71
2021/12/16 16:55:15;;;;;;;162.82;89.85;;;;;;;;;;5092698;28;20167;-69
2021/12/16 16:57:52;;;;;;;156.68;85.28;;;;;;;;;;5092921;28;20112;-69
2021/12/16 17:00:20;;;;;;;158.70;86.40;;;;;;;;;;5091528;28;20024;-68
2021/12/16 17:02:48;;;;;;;153.10;84.45;;;;;;;;;;5091566;28;20055;-70
2021/12/16 17:05:25;;;;;;;141.25;80.40;;;;;;;;;;5092787;28;20062;-68
2021/12/16 17:08:04;;;;;;;151.60;78.65;;;;;;;;;;5092976;28;20035;-69
2021/12/16 17:10:30;;;;;;;141.80;76.18;;;;;;;;;;5092954;28;20403;-67
2021/12/16 17:13:02;;;;;;;141.02;76.22;;;;;;;;;;5092885;28;20035;-69
2021/12/16 17:15:38;;;;;;;147.82;75.72;;;;;;;;;;5092760;28;20028;-68
2021/12/16 17:18:06;;;;;;;142.95;78.50;;;;;;;;;;5092845;28;20028;-69
2021/12/16 17:20:32;;;;;;;142.93;75.97;;;;;;;;;;5092763;28;20062;-68
2021/12/16 17:23:00;;;;;;;145.05;76.80;;;;;;;;;;5092651;28;20032;-67
2021/12/16 17:25:26;;;;;;;143.43;75.35;;;;;;;;;;5091050;28;20038;-68
2021/12/16 17:27:56;;;;;;;137.20;73.78;;;;;;;;;;5091343;28;20081;-68
2021/12/16 17:30:34;;;;;;;136.10;71.68;;;;;;;;;;5092647;28;20030;-66
2021/12/16 17:33:00;;;;;;;140.52;72.50;;;;;;;;;;5092899;28;20024;-67
2021/12/16 17:35:34;;;;;;;136.52;72.93;;;;;;;;;;5092202;28;20556;-67
2021/12/16 17:38:03;;;;;;;133.27;71.38;;;;;;;;;;5092602;28;20031;-67
2021/12/16 17:40:37;;;;;;;134.68;69.40;;;;;;;;;;5091194;28;20028;-67
2021/12/16 17:43:06;;;;;;;127.80;68.88;;;;;;;;;;5091207;28;20032;-68
2021/12/16 17:45:36;;;;;;;132.45;70.28;;;;;;;;;;5092485;28;20038;-66
2021/12/16 17:48:04;;;;;;;122.97;66.93;;;;;;;;;;5092587;28;20112;-68
2021/12/16 17:50:50;;;;;;;124.75;66.18;;;;;;;;;;5093188;28;20051;-67
2021/12/16 17:53:17;;;;;;;124.05;64.63;;;;;;;;;;5096117;28;20032;-67
2021/12/16 17:55:45;;;;;;;122.60;62.58;;;;;;;;;;5094654;28;20120;-67
2021/12/16 17:58:14;;;;;;;126.78;67.05;;;;;;;;;;5095970;28;20066;-66
2021/12/16 18:00:41;;;;;;;115.15;61.45;;;;;;;;;;5095947;28;20172;-67
2021/12/16 18:03:07;;;;;;;116.40;61.63;;;;;;;;;;5094591;28;20060;-66
2021/12/16 18:05:45;;;;;;;115.13;60.13;;;;;;;;;;5094500;28;20044;-68